Terminal Aerodrome Forecast
Issued by NWS

Home | Current Version | Previous Version | Text Only | Print | Product List | Glossary On
Versions: 1 2 3 4 5 6 7 8 9 10 11 12 13 14 15 16 17 18 19
000
FTUS46 KOTX 181139
TAFCOE
TAF
KCOE 181139Z 1812/1912 23015G23KT P6SM VCSH FEW070
     FM181600 23020G26KT P6SM SCT070
     FM182300 24015G23KT P6SM FEW070
     FM190230 13006KT P6SM SCT250
      AMD LTD TO CLD VIS AND WIND=

USA.gov is the U.S. government's official web portal to all federal, state and local government web resources and services.